Tridens — PBVO — position and weather

sailwx.info

Track history (hours):
 
Tides and Currents Weather Stations Pressure Air Temp Water Temp Dewpoint Dewpoint Depression Visibility Wind Speed Wind Dir Waves Ship Positions

Oceanographic research ship Tridens (Netherlands)

Detailed information on ship capabilities available from University of Delaware's Ocean Information Center.

Last reported at 2015-Aug-31 08:32 UTC. Time now 2015-Aug-31 08:54 UTC.
Position N 52°06' E 004°16'.

Length 74 m; beam 14 m.

Type: Ship. MMSI: 244033000.

Date/timePositionNaut miles runAvg speedWind from/ knotsBaromVisibWave heightAir tempDewpointWater temp
2015-Aug-31 08:32N 52°06' E 004°16'0 0.0
2015-Aug-31 07:32N 52°06' E 004°16'0 0.0
2015-Aug-31 06:31N 52°06' E 004°16'0 0.0
2015-Aug-31 05:31N 52°06' E 004°16'0 0.0
2015-Aug-31 04:31N 52°06' E 004°16'0 0.0
2015-Aug-31 03:31N 52°06' E 004°16'0 0.0
2015-Aug-31 02:31N 52°06' E 004°16'0 0.0
2015-Aug-31 01:31N 52°06' E 004°16'0 0.0
2015-Aug-31 00:31N 52°06' E 004°16'0 0.0
2015-Aug-30 23:31N 52°06' E 004°16'0 0.0
2015-Aug-30 22:32N 52°06' E 004°16'0 0.0
2015-Aug-30 21:31N 52°06' E 004°16'0 0.0
2015-Aug-30 20:31N 52°06' E 004°16'0 0.0
2015-Aug-30 19:28N 52°06' E 004°16'0 0.0
2015-Aug-30 18:31N 52°06' E 004°16'0 0.0
2015-Aug-30 17:28N 52°06' E 004°16'0 0.0
2015-Aug-30 16:31N 52°06' E 004°16'0 0.0
2015-Aug-30 15:31N 52°06' E 004°16'0 0.0
2015-Aug-30 14:31N 52°06' E 004°16'0 0.0
2015-Aug-30 13:28N 52°06' E 004°16'0 0.0
2015-Aug-30 12:31N 52°06' E 004°16'0 0.0
2015-Aug-30 11:28N 52°06' E 004°16'0 0.0
2015-Aug-30 10:31N 52°06' E 004°16'0 0.0
2015-Aug-30 09:31N 52°06' E 004°16'0 0.0
2015-Aug-30 08:31N 52°06' E 004°16'0 0.0
2015-Aug-30 07:28N 52°06' E 004°16'0 0.0
2015-Aug-30 06:31N 52°06' E 004°16'0 0.0
2015-Aug-30 05:28N 52°06' E 004°16'0 0.0
2015-Aug-30 04:31N 52°06' E 004°16'0 0.0
2015-Aug-30 03:31N 52°06' E 004°16'0 0.0
2015-Aug-30 02:31N 52°06' E 004°16'0 0.0
2015-Aug-30 01:25N 52°06' E 004°16'0 0.0
2015-Aug-30 00:31N 52°06' E 004°16'0 0.0
2015-Aug-29 23:31N 52°06' E 004°16'0 0.0
2015-Aug-29 22:28N 52°06' E 004°16'0 0.0
2015-Aug-29 21:28N 52°06' E 004°16'0 0.0
2015-Aug-29 20:31N 52°06' E 004°16'0 0.0
2015-Aug-29 19:31N 52°06' E 004°16'0 0.0
2015-Aug-29 18:31N 52°06' E 004°16'0 0.0
2015-Aug-29 17:34N 52°06' E 004°16'0 0.0
2015-Aug-29 16:33N 52°06' E 004°16'0 0.0
2015-Aug-29 15:30N 52°06' E 004°16'0 0.0
2015-Aug-29 14:33N 52°06' E 004°16'0 0.0
2015-Aug-29 13:33N 52°06' E 004°16'0 0.0
2015-Aug-29 12:27N 52°06' E 004°16'0 0.0
2015-Aug-29 11:33N 52°06' E 004°16'0 0.0
2015-Aug-29 10:33N 52°06' E 004°16'0 0.0
2015-Aug-29 09:33N 52°06' E 004°16'0 0.0
2015-Aug-29 08:33N 52°06' E 004°16'0 0.0
2015-Aug-29 07:33N 52°06' E 004°16'0 0.0
2015-Aug-29 06:33N 52°06' E 004°16'0 0.0
2015-Aug-29 05:33N 52°06' E 004°16'0 0.0
2015-Aug-29 04:33N 52°06' E 004°16'0 0.0
2015-Aug-29 03:33N 52°06' E 004°16'0 0.0
2015-Aug-29 02:33N 52°06' E 004°16'0 0.0
2015-Aug-29 01:33N 52°06' E 004°16'0 0.0
2015-Aug-29 00:33N 52°06' E 004°16'0 0.0
2015-Aug-28 23:33N 52°06' E 004°16'0 0.0
2015-Aug-28 22:33N 52°06' E 004°16'0 0.0
2015-Aug-28 21:33N 52°06' E 004°16'0 0.0
2015-Aug-28 20:33N 52°06' E 004°16'0 0.0
2015-Aug-28 19:30N 52°06' E 004°16'0 0.0
2015-Aug-28 18:30N 52°06' E 004°16'0 0.0
2015-Aug-28 17:33N 52°06' E 004°16'0 0.0
2015-Aug-28 16:33N 52°06' E 004°16'0 0.0
2015-Aug-28 15:33N 52°06' E 004°16'0 0.0
2015-Aug-28 14:33N 52°06' E 004°16'0 0.0
2015-Aug-28 13:33N 52°06' E 004°16'0 0.0
2015-Aug-28 12:33N 52°06' E 004°16'0 0.0
2015-Aug-28 11:30N 52°06' E 004°16'0 0.0
2015-Aug-28 10:33N 52°06' E 004°16'0 0.0
2015-Aug-28 09:33N 52°06' E 004°16'0 0.0
2015-Aug-28 08:33N 52°06' E 004°16'0 0.0
2015-Aug-28 07:33N 52°06' E 004°16'0 0.0
2015-Aug-28 06:33N 52°06' E 004°16'3 3.1
2015-Aug-28 05:33N 52°08' E 004°13'5 4.9
2015-Aug-28 04:33N 52°09' E 004°05'6 6.3
2015-Aug-28 03:33N 52°11' E 003°55'78 7.8
2015-Aug-27 17:33N 51°43' E 001°57'4 3.6
2015-Aug-27 16:33N 51°41' E 001°53'0 0.1
2015-Aug-27 15:33N 51°41' E 001°53'208 9.9
2015-Aug-26 18:28N 55°04' E 000°40'40 3.2
2015-Aug-26 06:03N 54°48' W 000°24'1 2.7
2015-Aug-26 05:32N 54°48' W 000°22'1 1.1
2015-Aug-26 04:33N 54°49' W 000°20'2 2.2
2015-Aug-26 03:33N 54°51' W 000°20'5 5.1
2015-Aug-26 02:32N 54°56' W 000°21'7 5.7
2015-Aug-26 01:21N 55°03' W 000°21'139 3.0
2015-Aug-24 03:33N 57°09' W 002°05'0 0.3
2015-Aug-24 02:32N 57°09' W 002°06'0 0.0
2015-Aug-24 01:32N 57°09' W 002°06'0 0.0
2015-Aug-24 00:32N 57°09' W 002°06'0 0.0
2015-Aug-23 23:32N 57°09' W 002°06'0 0.0
2015-Aug-23 22:32N 57°09' W 002°06'0 0.0
2015-Aug-23 21:32N 57°09' W 002°06'0 0.0
2015-Aug-23 20:32N 57°09' W 002°06'0 0.0
2015-Aug-23 19:32N 57°09' W 002°06'0 0.0
2015-Aug-23 18:32N 57°09' W 002°06'0 0.0
2015-Aug-23 17:32N 57°09' W 002°06'0 0.0
2015-Aug-23 16:29N 57°09' W 002°06'0 0.0
2015-Aug-23 15:32N 57°09' W 002°06'0 0.0
2015-Aug-23 14:32N 57°09' W 002°06'0 0.0
2015-Aug-23 13:32N 57°09' W 002°06'0 0.0
2015-Aug-23 12:32N 57°09' W 002°06'0 0.0
2015-Aug-23 11:32N 57°09' W 002°06'0 0.0
2015-Aug-23 10:32N 57°09' W 002°06'0 0.0
2015-Aug-23 09:26N 57°09' W 002°06'0 0.0
2015-Aug-23 08:32N 57°09' W 002°06'0 0.0
2015-Aug-23 07:32N 57°09' W 002°06'0 0.0
2015-Aug-23 06:26N 57°09' W 002°06'0 0.0
2015-Aug-23 05:26N 57°09' W 002°06'0 0.0
2015-Aug-23 04:26N 57°09' W 002°06'0 0.0
2015-Aug-23 03:26N 57°09' W 002°06'0 0.0
2015-Aug-23 02:32N 57°09' W 002°06'0 0.0
2015-Aug-23 01:32N 57°09' W 002°06'0 0.0
2015-Aug-23 00:32N 57°09' W 002°06'0 0.0
2015-Aug-22 23:32N 57°09' W 002°06'0 0.0
2015-Aug-22 22:26N 57°09' W 002°06'0 0.0
2015-Aug-22 21:32N 57°09' W 002°06'0 0.0
2015-Aug-22 20:26N 57°09' W 002°06'0 0.0
2015-Aug-22 19:31N 57°09' W 002°06'0 0.0
2015-Aug-22 18:19N 57°09' W 002°06'0 0.0
2015-Aug-22 17:31N 57°09' W 002°06'0 0.0
2015-Aug-22 16:07N 57°09' W 002°06'0 0.0
2015-Aug-22 15:31N 57°09' W 002°06'0 0.0
2015-Aug-22 14:25N 57°09' W 002°06'0 0.0
2015-Aug-22 13:31N 57°09' W 002°06'0 0.0
2015-Aug-22 12:31N 57°09' W 002°06'0 0.0
2015-Aug-22 11:31N 57°09' W 002°06'0 0.0
2015-Aug-22 10:31N 57°09' W 002°06'0 0.0
2015-Aug-22 09:31N 57°09' W 002°06'0 0.0
2015-Aug-22 08:25N 57°09' W 002°06'0 0.0
2015-Aug-22 07:13N 57°09' W 002°06'0 0.0
2015-Aug-22 06:25N 57°09' W 002°06'0 0.0
2015-Aug-22 05:25N 57°09' W 002°06'0 0.0
2015-Aug-22 04:25N 57°09' W 002°06'0 0.0
2015-Aug-22 03:31N 57°09' W 002°06'0 0.0
2015-Aug-22 02:31N 57°09' W 002°06'0 0.0
2015-Aug-22 01:13N 57°09' W 002°06'0 0.0
2015-Aug-22 00:31N 57°09' W 002°06'0 0.0
2015-Aug-21 23:31N 57°09' W 002°06'0 0.0
2015-Aug-21 22:33N 57°09' W 002°06'19 9.7
2015-Aug-21 20:34N 57°25' W 001°45'1413.5
2015-Aug-21 19:33N 57°38' W 001°46'1211.7
2015-Aug-21 18:33N 57°49' W 001°53'  
Track history (hours):
 
Tides and Currents Weather Stations Pressure Air Temp Water Temp Dewpoint Dewpoint Depression Visibility Wind Speed Wind Dir Waves Ship Positions

Oceanographic research ship Tridens (Netherlands)

Detailed information on ship capabilities available from University of Delaware's Ocean Information Center.

Last reported at 2015-Aug-31 08:32 UTC. Time now 2015-Aug-31 08:54 UTC.
Position N 52°06' E 004°16'.

Length 74 m; beam 14 m.

Type: Ship. MMSI: 244033000.

Date/timePositionNaut miles runAvg speedWind from/ knotsBaromVisibWave heightAir tempDewpointWater temp
2015-Aug-31 08:32N 52°06' E 004°16'0 0.0
2015-Aug-31 07:32N 52°06' E 004°16'0 0.0
2015-Aug-31 06:31N 52°06' E 004°16'0 0.0
2015-Aug-31 05:31N 52°06' E 004°16'0 0.0
2015-Aug-31 04:31N 52°06' E 004°16'0 0.0
2015-Aug-31 03:31N 52°06' E 004°16'0 0.0
2015-Aug-31 02:31N 52°06' E 004°16'0 0.0
2015-Aug-31 01:31N 52°06' E 004°16'0 0.0
2015-Aug-31 00:31N 52°06' E 004°16'0 0.0
2015-Aug-30 23:31N 52°06' E 004°16'0 0.0
2015-Aug-30 22:32N 52°06' E 004°16'0 0.0
2015-Aug-30 21:31N 52°06' E 004°16'0 0.0
2015-Aug-30 20:31N 52°06' E 004°16'0 0.0
2015-Aug-30 19:28N 52°06' E 004°16'0 0.0
2015-Aug-30 18:31N 52°06' E 004°16'0 0.0
2015-Aug-30 17:28N 52°06' E 004°16'0 0.0
2015-Aug-30 16:31N 52°06' E 004°16'0 0.0
2015-Aug-30 15:31N 52°06' E 004°16'0 0.0
2015-Aug-30 14:31N 52°06' E 004°16'0 0.0
2015-Aug-30 13:28N 52°06' E 004°16'0 0.0
2015-Aug-30 12:31N 52°06' E 004°16'0 0.0
2015-Aug-30 11:28N 52°06' E 004°16'0 0.0
2015-Aug-30 10:31N 52°06' E 004°16'0 0.0
2015-Aug-30 09:31N 52°06' E 004°16'0 0.0
2015-Aug-30 08:31N 52°06' E 004°16'0 0.0
2015-Aug-30 07:28N 52°06' E 004°16'0 0.0
2015-Aug-30 06:31N 52°06' E 004°16'0 0.0
2015-Aug-30 05:28N 52°06' E 004°16'0 0.0
2015-Aug-30 04:31N 52°06' E 004°16'0 0.0
2015-Aug-30 03:31N 52°06' E 004°16'0 0.0
2015-Aug-30 02:31N 52°06' E 004°16'0 0.0
2015-Aug-30 01:25N 52°06' E 004°16'0 0.0
2015-Aug-30 00:31N 52°06' E 004°16'0 0.0
2015-Aug-29 23:31N 52°06' E 004°16'0 0.0
2015-Aug-29 22:28N 52°06' E 004°16'0 0.0
2015-Aug-29 21:28N 52°06' E 004°16'0 0.0
2015-Aug-29 20:31N 52°06' E 004°16'0 0.0
2015-Aug-29 19:31N 52°06' E 004°16'0 0.0
2015-Aug-29 18:31N 52°06' E 004°16'0 0.0
2015-Aug-29 17:34N 52°06' E 004°16'0 0.0
2015-Aug-29 16:33N 52°06' E 004°16'0 0.0
2015-Aug-29 15:30N 52°06' E 004°16'0 0.0
2015-Aug-29 14:33N 52°06' E 004°16'0 0.0
2015-Aug-29 13:33N 52°06' E 004°16'0 0.0
2015-Aug-29 12:27N 52°06' E 004°16'0 0.0
2015-Aug-29 11:33N 52°06' E 004°16'0 0.0
2015-Aug-29 10:33N 52°06' E 004°16'0 0.0
2015-Aug-29 09:33N 52°06' E 004°16'0 0.0
2015-Aug-29 08:33N 52°06' E 004°16'0 0.0
2015-Aug-29 07:33N 52°06' E 004°16'0 0.0
2015-Aug-29 06:33N 52°06' E 004°16'0 0.0
2015-Aug-29 05:33N 52°06' E 004°16'0 0.0
2015-Aug-29 04:33N 52°06' E 004°16'0 0.0
2015-Aug-29 03:33N 52°06' E 004°16'0 0.0
2015-Aug-29 02:33N 52°06' E 004°16'0 0.0
2015-Aug-29 01:33N 52°06' E 004°16'0 0.0
2015-Aug-29 00:33N 52°06' E 004°16'0 0.0
2015-Aug-28 23:33N 52°06' E 004°16'0 0.0
2015-Aug-28 22:33N 52°06' E 004°16'0 0.0
2015-Aug-28 21:33N 52°06' E 004°16'0 0.0
2015-Aug-28 20:33N 52°06' E 004°16'0 0.0
2015-Aug-28 19:30N 52°06' E 004°16'0 0.0
2015-Aug-28 18:30N 52°06' E 004°16'0 0.0
2015-Aug-28 17:33N 52°06' E 004°16'0 0.0
2015-Aug-28 16:33N 52°06' E 004°16'0 0.0
2015-Aug-28 15:33N 52°06' E 004°16'0 0.0
2015-Aug-28 14:33N 52°06' E 004°16'0 0.0
2015-Aug-28 13:33N 52°06' E 004°16'0 0.0
2015-Aug-28 12:33N 52°06' E 004°16'0 0.0
2015-Aug-28 11:30N 52°06' E 004°16'0 0.0
2015-Aug-28 10:33N 52°06' E 004°16'0 0.0
2015-Aug-28 09:33N 52°06' E 004°16'0 0.0
2015-Aug-28 08:33N 52°06' E 004°16'0 0.0
2015-Aug-28 07:33N 52°06' E 004°16'0 0.0
2015-Aug-28 06:33N 52°06' E 004°16'3 3.1
2015-Aug-28 05:33N 52°08' E 004°13'5 4.9
2015-Aug-28 04:33N 52°09' E 004°05'6 6.3
2015-Aug-28 03:33N 52°11' E 003°55'78 7.8
2015-Aug-27 17:33N 51°43' E 001°57'4 3.6
2015-Aug-27 16:33N 51°41' E 001°53'0 0.1
2015-Aug-27 15:33N 51°41' E 001°53'208 9.9
2015-Aug-26 18:28N 55°04' E 000°40'40 3.2
2015-Aug-26 06:03N 54°48' W 000°24'1 2.7
2015-Aug-26 05:32N 54°48' W 000°22'1 1.1
2015-Aug-26 04:33N 54°49' W 000°20'2 2.2
2015-Aug-26 03:33N 54°51' W 000°20'5 5.1
2015-Aug-26 02:32N 54°56' W 000°21'7 5.7
2015-Aug-26 01:21N 55°03' W 000°21'139 3.0
2015-Aug-24 03:33N 57°09' W 002°05'0 0.3
2015-Aug-24 02:32N 57°09' W 002°06'0 0.0
2015-Aug-24 01:32N 57°09' W 002°06'0 0.0
2015-Aug-24 00:32N 57°09' W 002°06'0 0.0
2015-Aug-23 23:32N 57°09' W 002°06'0 0.0
2015-Aug-23 22:32N 57°09' W 002°06'0 0.0
2015-Aug-23 21:32N 57°09' W 002°06'0 0.0
2015-Aug-23 20:32N 57°09' W 002°06'0 0.0
2015-Aug-23 19:32N 57°09' W 002°06'0 0.0
2015-Aug-23 18:32N 57°09' W 002°06'0 0.0
2015-Aug-23 17:32N 57°09' W 002°06'0 0.0
2015-Aug-23 16:29N 57°09' W 002°06'0 0.0
2015-Aug-23 15:32N 57°09' W 002°06'0 0.0
2015-Aug-23 14:32N 57°09' W 002°06'0 0.0
2015-Aug-23 13:32N 57°09' W 002°06'0 0.0
2015-Aug-23 12:32N 57°09' W 002°06'0 0.0
2015-Aug-23 11:32N 57°09' W 002°06'0 0.0
2015-Aug-23 10:32N 57°09' W 002°06'0 0.0
2015-Aug-23 09:26N 57°09' W 002°06'0 0.0
2015-Aug-23 08:32N 57°09' W 002°06'0 0.0
2015-Aug-23 07:32N 57°09' W 002°06'0 0.0
2015-Aug-23 06:26N 57°09' W 002°06'0 0.0
2015-Aug-23 05:26N 57°09' W 002°06'0 0.0
2015-Aug-23 04:26N 57°09' W 002°06'0 0.0
2015-Aug-23 03:26N 57°09' W 002°06'0 0.0
2015-Aug-23 02:32N 57°09' W 002°06'0 0.0
2015-Aug-23 01:32N 57°09' W 002°06'0 0.0
2015-Aug-23 00:32N 57°09' W 002°06'0 0.0
2015-Aug-22 23:32N 57°09' W 002°06'0 0.0
2015-Aug-22 22:26N 57°09' W 002°06'0 0.0
2015-Aug-22 21:32N 57°09' W 002°06'0 0.0
2015-Aug-22 20:26N 57°09' W 002°06'0 0.0
2015-Aug-22 19:31N 57°09' W 002°06'0 0.0
2015-Aug-22 18:19N 57°09' W 002°06'0 0.0
2015-Aug-22 17:31N 57°09' W 002°06'0 0.0
2015-Aug-22 16:07N 57°09' W 002°06'0 0.0
2015-Aug-22 15:31N 57°09' W 002°06'0 0.0
2015-Aug-22 14:25N 57°09' W 002°06'0 0.0
2015-Aug-22 13:31N 57°09' W 002°06'0 0.0
2015-Aug-22 12:31N 57°09' W 002°06'0 0.0
2015-Aug-22 11:31N 57°09' W 002°06'0 0.0
2015-Aug-22 10:31N 57°09' W 002°06'0 0.0
2015-Aug-22 09:31N 57°09' W 002°06'0 0.0
2015-Aug-22 08:25N 57°09' W 002°06'0 0.0
2015-Aug-22 07:13N 57°09' W 002°06'0 0.0
2015-Aug-22 06:25N 57°09' W 002°06'0 0.0
2015-Aug-22 05:25N 57°09' W 002°06'0 0.0
2015-Aug-22 04:25N 57°09' W 002°06'0 0.0
2015-Aug-22 03:31N 57°09' W 002°06'0 0.0
2015-Aug-22 02:31N 57°09' W 002°06'0 0.0
2015-Aug-22 01:13N 57°09' W 002°06'0 0.0
2015-Aug-22 00:31N 57°09' W 002°06'0 0.0
2015-Aug-21 23:31N 57°09' W 002°06'0 0.0
2015-Aug-21 22:33N 57°09' W 002°06'19 9.7
2015-Aug-21 20:34N 57°25' W 001°45'1413.5
2015-Aug-21 19:33N 57°38' W 001°46'1211.7
2015-Aug-21 18:33N 57°49' W 001°53'  

Dump ship's entire track history